Αρχική σελίδα
METAR-TAF:

METAR-TAF

Αεροδρόμια :

Βικτώρια, Μαέ, Σεϋχέλλες

γεωγραφικό πλάτος: 04-40S, γεωγραφικό μήκος: 055-31E, υψόμετρο: 3 μ

Παρών καιρός

Η αναφορά έγινε 42 λεπτά πριν, στις 11:00 UTC
Άνεμος 11 kt από ΝA
Θερμοκρασία 30°C
Υγρασία 70%
Πίεση 1010 hPa
Ορατότητα 10 χλμ και άνω
Διάσπαρτα νέφη σε ύψος 2100 πόδια

METAR: FSIA 161100Z 13011KT 9999 SCT021 30/24 Q1010 NOSIG

Χρόνος: 15:42 (11:42 UTC)

Πρόγνωση Καιρού

Η αναφορά έγινε 39 λεπτά πριν, στις 11:03 UTC
Η πρόγνωση ισχύει από τις 16 στις 12 UTC έως τις 17 στις 12 UTC
Άνεμος 10 kt από ΝA
Ορατότητα 10 χλμ και άνω
Διάσπαρτα νέφη σε ύψος 2200 πόδια
Προσωρινά
από 16 στις 13 UTC έως τις 16 στις 20 UTC
Ορατότητα: 8000 μ
Λίγα νέφη σε ύψος 1200 πόδια
Αρκετά νέφη σε ύψος 1800 πόδια
Ασθενείς όμβροι

TAF: FSIA 161103Z 1612/1712 14010KT 9999 SCT022 TEMPO 1613/1620 8000 -SHRA FEW012 BKN018

Μετεωρολογικές αναφορές και προγνώσεις για περισσότερα από 4000 αεροδρόμια (δελτία METAR και TAF).

Οι διαθέσιμοι σταθμοί απεικονίζονται στο χάρτη με κίτρινες και κόκκινες κουκκίδες.

Μετακινήστε το ποντίκι πάνω από τις κουκκίδες για να δείτε το όνομα του σταθμού.

Στη συνέχεια, κάντε κλικ για να δείτε τις μετεωρολογικές αναφορές και τις προγνώσεις καιρού.

Για να αλλάξετε το χάρτη: κάντε κλικ στα πράσινα κουμπιά με τον μαύρο σταυρό για να ζουμάρετε, στο πράσινο κουμπί με την παύλα για να αφαιρέσετε το ζουμ ή στα πράσινα βέλη για να αντιπαραβάλλετε χάρτες.


METAR-TAF: